Time;durP1;ratioP1;P1;durP2;ratioP2;P2;SDS_P1;SDS_P2;PMS_P1;PMS_P2;Temp;Humidity;BMP_temperature;BMP_pressure;BME280_temperature;BME280_humidity;BME280_pressure;Samples;Min_cycle;Max_cycle;Signal;HPM_P1;HPM_P2
2021/08/21 00:00:14;;;;;;;7.30;4.30;;;18.50;71.10;;;;;;5046096;28;20025;-49
2021/08/21 00:02:58;;;;;;;9.93;4.07;;;18.40;71.20;;;;;;5044713;28;20036;-50
2021/08/21 00:05:42;;;;;;;8.10;4.15;;;18.40;71.20;;;;;;5044982;28;20040;-48
2021/08/21 00:08:26;;;;;;;7.05;4.32;;;18.40;71.30;;;;;;5045342;28;20233;-50
2021/08/21 00:11:10;;;;;;;5.55;3.88;;;18.40;71.10;;;;;;5045251;28;20036;-50
2021/08/21 00:13:55;;;;;;;8.23;4.03;;;18.40;71.20;;;;;;5045150;28;20044;-50
2021/08/21 00:16:39;;;;;;;8.63;4.20;;;18.40;71.10;;;;;;5045138;28;20087;-51
2021/08/21 00:19:23;;;;;;;5.90;4.13;;;18.30;71.10;;;;;;5045096;28;20355;-52
2021/08/21 00:22:09;;;;;;;6.38;4.60;;;18.40;71.20;;;;;;5045064;28;20120;-53
2021/08/21 00:24:53;;;;;;;5.53;4.00;;;18.30;71.30;;;;;;5045013;28;20044;-49
2021/08/21 00:27:38;;;;;;;8.40;3.78;;;18.30;71.20;;;;;;5045011;28;20033;-50
2021/08/21 00:30:23;;;;;;;7.68;4.47;;;18.30;71.30;;;;;;5045370;28;20021;-53
2021/08/21 00:33:07;;;;;;;7.35;4.05;;;18.30;71.30;;;;;;5045582;28;20052;-51
2021/08/21 00:35:51;;;;;;;8.32;3.90;;;18.20;71.40;;;;;;5044923;28;20067;-49
2021/08/21 00:38:35;;;;;;;5.70;3.63;;;18.20;71.50;;;;;;5044721;28;20029;-50
2021/08/21 00:41:20;;;;;;;6.05;4.20;;;18.10;71.40;;;;;;5044639;28;20379;-50
2021/08/21 00:44:05;;;;;;;6.22;4.03;;;18.10;71.50;;;;;;5044675;28;20087;-50
2021/08/21 00:47:11;;;;;;;6.05;3.72;;;18.10;71.50;;;;;;5044659;28;20399;-50
2021/08/21 00:49:55;;;;;;;10.93;4.57;;;18.10;71.90;;;;;;5044992;28;20040;-51
2021/08/21 00:52:40;;;;;;;6.32;4.00;;;18.10;71.70;;;;;;5044724;28;20029;-49
2021/08/21 00:55:24;;;;;;;5.70;4.10;;;18.00;71.80;;;;;;5044678;28;20351;-50
2021/08/21 00:58:10;;;;;;;7.32;3.92;;;18.00;71.70;;;;;;5044556;28;20024;-51
2021/08/21 01:00:54;;;;;;;7.63;4.07;;;18.00;71.70;;;;;;5043556;28;20076;-49
2021/08/21 01:03:38;;;;;;;8.05;4.20;;;17.90;71.80;;;;;;5044447;28;20063;-51
2021/08/21 01:06:22;;;;;;;6.95;3.72;;;17.90;71.80;;;;;;5044774;28;20099;-49
2021/08/21 01:09:07;;;;;;;6.05;3.15;;;17.90;71.70;;;;;;5043523;28;20315;-52
2021/08/21 01:11:51;;;;;;;8.35;4.15;;;17.90;71.70;;;;;;5044292;28;20037;-49
2021/08/21 01:14:35;;;;;;;6.18;3.88;;;17.80;71.80;;;;;;5044017;28;20245;-49
2021/08/21 01:17:19;;;;;;;8.60;3.78;;;17.80;71.70;;;;;;5043995;28;20048;-48
2021/08/21 01:20:05;;;;;;;5.55;3.67;;;17.80;71.60;;;;;;5044074;28;20056;-52
2021/08/21 01:22:49;;;;;;;7.10;4.20;;;17.80;71.70;;;;;;5044131;28;20092;-49
2021/08/21 01:25:34;;;;;;;7.53;3.70;;;17.80;71.80;;;;;;5044019;28;20031;-51
2021/08/21 01:28:18;;;;;;;7.38;3.58;;;17.80;71.90;;;;;;5044324;28;20033;-50
2021/08/21 01:31:04;;;;;;;6.70;4.00;;;17.70;71.90;;;;;;5043965;28;20051;-53
2021/08/21 01:33:48;;;;;;;6.55;4.07;;;17.70;71.80;;;;;;5044131;28;20036;-49
2021/08/21 01:36:40;;;;;;;8.27;4.10;;;17.70;71.80;;;;;;5043719;28;20067;-52
2021/08/21 01:39:24;;;;;;;6.80;4.25;;;17.80;71.80;;;;;;5044280;28;20021;-51
2021/08/21 01:42:08;;;;;;;7.53;4.18;;;17.70;71.70;;;;;;5043908;28;20032;-49
2021/08/21 01:44:52;;;;;;;8.57;4.00;;;17.60;71.90;;;;;;5043855;28;20040;-52
2021/08/21 01:47:37;;;;;;;9.38;4.40;;;17.70;71.80;;;;;;5044473;28;20355;-51
2021/08/21 01:50:21;;;;;;;9.02;4.07;;;17.60;71.70;;;;;;5044073;28;20074;-50
2021/08/21 01:53:15;;;;;;;7.80;4.30;;;17.60;71.90;;;;;;5043001;28;20442;-50
2021/08/21 01:55:59;;;;;;;5.03;3.75;;;17.50;72.00;;;;;;5043082;28;20313;-50
2021/08/21 01:58:43;;;;;;;6.63;3.90;;;17.50;72.00;;;;;;5043741;28;20256;-49
2021/08/21 02:01:28;;;;;;;7.72;4.45;;;17.50;71.90;;;;;;5043610;28;20320;-49
2021/08/21 02:04:12;;;;;;;5.60;4.10;;;17.50;72.00;;;;;;5043715;28;20204;-51
2021/08/21 02:06:57;;;;;;;5.63;3.90;;;17.50;71.90;;;;;;5043566;28;20067;-51
2021/08/21 02:09:41;;;;;;;7.85;4.22;;;17.50;71.80;;;;;;5043400;28;20032;-51
2021/08/21 02:12:25;;;;;;;5.15;3.78;;;17.40;71.80;;;;;;5043329;28;20268;-46
2021/08/21 02:15:11;;;;;;;6.82;4.43;;;17.40;71.80;;;;;;5043706;28;20152;-50
2021/08/21 02:17:55;;;;;;;5.68;3.90;;;17.40;71.80;;;;;;5047273;28;20252;-50
2021/08/21 02:20:39;;;;;;;7.07;4.10;;;17.40;71.60;;;;;;5047782;28;20093;-50
2021/08/21 02:23:25;;;;;;;5.88;3.80;;;17.40;71.60;;;;;;5047591;28;20028;-50
2021/08/21 02:26:09;;;;;;;5.35;4.10;;;17.30;71.70;;;;;;5047375;28;20037;-49
2021/08/21 02:28:53;;;;;;;6.88;3.65;;;17.30;71.80;;;;;;5047094;28;20105;-50
2021/08/21 02:31:38;;;;;;;7.57;4.03;;;17.30;71.70;;;;;;5047059;28;20079;-51
2021/08/21 02:34:26;;;;;;;5.95;3.90;;;17.30;71.60;;;;;;5046951;28;20367;-50
2021/08/21 02:37:12;;;;;;;5.20;3.95;;;17.30;71.60;;;;;;5046835;28;20221;-51
2021/08/21 02:39:56;;;;;;;7.15;4.15;;;17.20;71.70;;;;;;5046286;28;20033;-50
2021/08/21 02:42:40;;;;;;;4.85;3.58;;;17.20;71.80;;;;;;5046065;28;20040;-49
2021/08/21 02:45:25;;;;;;;5.03;3.80;;;17.20;71.60;;;;;;5047920;28;20045;-51
2021/08/21 02:48:09;;;;;;;6.20;4.13;;;17.20;71.70;;;;;;5046964;28;20317;-50
2021/08/21 02:50:53;;;;;;;6.93;4.13;;;17.20;71.70;;;;;;5046958;28;20079;-49
2021/08/21 02:53:37;;;;;;;5.97;4.10;;;17.10;71.80;;;;;;5047188;28;20092;-51
2021/08/21 02:56:22;;;;;;;8.38;3.83;;;17.10;71.90;;;;;;5046709;28;20071;-49
2021/08/21 02:59:06;;;;;;;8.23;4.30;;;17.20;71.90;;;;;;5046594;28;20032;-51
2021/08/21 03:01:50;;;;;;;6.07;4.40;;;17.20;71.80;;;;;;5046870;28;20052;-49
2021/08/21 03:04:35;;;;;;;6.05;4.07;;;17.00;72.00;;;;;;5046614;28;20344;-49
2021/08/21 03:07:19;;;;;;;6.30;4.40;;;17.20;71.70;;;;;;5046626;28;20036;-50
2021/08/21 03:10:04;;;;;;;7.50;4.35;;;17.10;71.90;;;;;;5046503;28;20032;-52
2021/08/21 03:12:48;;;;;;;8.23;4.15;;;17.10;71.90;;;;;;5046325;28;20068;-49
2021/08/21 03:15:33;;;;;;;10.13;4.13;;;17.00;71.90;;;;;;5046145;28;20051;-52
2021/08/21 03:18:17;;;;;;;8.10;4.10;;;17.00;71.80;;;;;;5046717;28;20024;-51
2021/08/21 03:21:01;;;;;;;6.15;3.95;;;17.10;71.80;;;;;;5046367;28;20256;-50
2021/08/21 03:23:45;;;;;;;6.35;3.65;;;17.00;71.80;;;;;;5046534;28;20053;-53
2021/08/21 03:26:29;;;;;;;7.65;4.70;;;17.00;71.80;;;;;;5045100;28;20056;-51
2021/08/21 03:29:13;;;;;;;5.80;4.10;;;17.00;71.90;;;;;;5044740;28;20056;-49
2021/08/21 03:31:58;;;;;;;7.22;4.15;;;17.00;71.90;;;;;;5045901;28;20224;-51
2021/08/21 03:34:43;;;;;;;9.05;3.97;;;16.90;71.90;;;;;;5045896;28;20056;-49
2021/08/21 03:37:27;;;;;;;6.43;4.25;;;16.90;71.90;;;;;;5045921;28;20367;-49
2021/08/21 03:40:12;;;;;;;8.05;4.15;;;16.90;72.00;;;;;;5046009;28;20244;-50
2021/08/21 03:42:56;;;;;;;7.10;4.13;;;16.90;71.90;;;;;;5045945;28;20048;-53
2021/08/21 03:45:41;;;;;;;7.70;4.72;;;16.80;72.00;;;;;;5045659;28;20024;-50
2021/08/21 03:48:25;;;;;;;8.10;4.05;;;16.90;71.90;;;;;;5046541;28;20044;-49
2021/08/21 03:51:09;;;;;;;9.85;4.55;;;16.90;71.90;;;;;;5045817;28;20070;-50
2021/08/21 03:53:53;;;;;;;6.05;4.10;;;16.90;71.90;;;;;;5045815;28;20052;-50
2021/08/21 03:56:37;;;;;;;6.20;4.43;;;16.80;71.90;;;;;;5046097;28;20032;-49
2021/08/21 03:59:22;;;;;;;7.20;4.35;;;16.80;72.00;;;;;;5045960;28;20028;-51
2021/08/21 04:02:06;;;;;;;6.03;3.92;;;16.80;72.00;;;;;;5045899;28;20040;-48
2021/08/21 04:04:50;;;;;;;5.85;3.95;;;16.80;72.00;;;;;;5045643;28;20084;-49
2021/08/21 04:07:34;;;;;;;8.75;4.13;;;16.70;71.90;;;;;;5045519;28;20084;-49
2021/08/21 04:10:19;;;;;;;6.28;3.97;;;16.70;72.00;;;;;;5045436;28;20044;-49
2021/08/21 04:13:03;;;;;;;5.75;3.65;;;16.70;72.10;;;;;;5045224;28;20229;-50
2021/08/21 04:15:48;;;;;;;9.23;4.22;;;16.70;72.10;;;;;;5045080;28;20053;-50
2021/08/21 04:18:32;;;;;;;6.15;3.83;;;16.70;72.10;;;;;;5045111;28;20079;-50
2021/08/21 04:21:16;;;;;;;7.10;4.38;;;16.70;72.20;;;;;;5044645;28;20072;-53
2021/08/21 04:24:00;;;;;;;5.22;3.92;;;16.60;72.30;;;;;;5045147;28;20059;-52
2021/08/21 04:26:45;;;;;;;7.20;4.25;;;16.60;72.30;;;;;;5045517;28;20091;-49
2021/08/21 04:29:29;;;;;;;8.05;4.20;;;16.60;72.20;;;;;;5045476;28;20200;-51
2021/08/21 04:32:13;;;;;;;5.60;3.88;;;16.60;72.30;;;;;;5044933;28;20362;-49
2021/08/21 04:34:58;;;;;;;7.65;4.10;;;16.60;72.20;;;;;;5045045;28;20076;-49
2021/08/21 04:37:42;;;;;;;5.25;3.70;;;16.60;72.20;;;;;;5044753;28;20063;-51
2021/08/21 04:40:27;;;;;;;6.60;4.32;;;16.70;72.30;;;;;;5044365;28;20091;-52
2021/08/21 04:43:11;;;;;;;7.28;4.78;;;16.60;72.50;;;;;;5044782;28;20029;-52
2021/08/21 04:45:55;;;;;;;8.02;4.30;;;16.70;72.20;;;;;;5044703;28;20093;-51
2021/08/21 04:48:39;;;;;;;5.90;4.28;;;16.70;72.10;;;;;;5044585;28;20037;-50
2021/08/21 04:51:24;;;;;;;5.70;4.03;;;16.70;72.20;;;;;;5045404;28;20089;-49
2021/08/21 04:54:08;;;;;;;5.63;4.22;;;16.70;72.30;;;;;;5044712;28;20264;-49
2021/08/21 04:56:52;;;;;;;5.20;3.90;;;16.60;72.40;;;;;;5045090;28;20037;-51
2021/08/21 04:59:37;;;;;;;8.52;4.38;;;16.60;72.60;;;;;;5044391;28;20036;-48
2021/08/21 05:02:21;;;;;;;6.43;3.70;;;16.60;72.70;;;;;;5044322;28;20267;-53
2021/08/21 05:05:06;;;;;;;5.75;3.67;;;16.70;72.70;;;;;;5044315;28;20071;-50
2021/08/21 05:07:50;;;;;;;8.38;4.10;;;16.70;72.90;;;;;;5044648;28;20059;-49
2021/08/21 05:10:34;;;;;;;6.47;4.07;;;16.70;73.00;;;;;;5044212;28;20103;-52
2021/08/21 05:13:18;;;;;;;7.10;4.07;;;16.70;73.10;;;;;;5044020;28;20036;-50
2021/08/21 05:16:03;;;;;;;11.38;4.43;;;16.80;73.20;;;;;;5044020;28;20056;-50
2021/08/21 05:18:51;;;;;;;6.40;4.38;;;16.80;73.30;;;;;;5043954;28;20052;-53
2021/08/21 05:21:36;;;;;;;7.43;4.47;;;16.80;73.30;;;;;;5044213;28;20116;-51
2021/08/21 05:24:20;;;;;;;5.60;4.20;;;16.80;73.50;;;;;;5044435;28;20068;-51
2021/08/21 05:27:05;;;;;;;6.45;4.35;;;16.80;73.60;;;;;;5044093;28;20056;-49
2021/08/21 05:29:49;;;;;;;8.00;4.65;;;16.80;73.80;;;;;;5043833;28;20036;-48
2021/08/21 05:32:34;;;;;;;7.47;4.57;;;16.90;73.80;;;;;;5043795;28;20032;-49
2021/08/21 05:35:18;;;;;;;8.02;4.05;;;16.90;74.00;;;;;;5043209;28;20036;-49
2021/08/21 05:38:02;;;;;;;7.82;4.45;;;17.00;74.10;;;;;;5043721;28;20379;-49
2021/08/21 05:40:47;;;;;;;8.07;4.68;;;17.00;74.30;;;;;;5042781;28;20041;-51
2021/08/21 05:43:31;;;;;;;9.52;4.55;;;17.10;74.20;;;;;;5043680;28;20076;-50
2021/08/21 05:46:15;;;;;;;6.00;4.45;;;17.10;74.50;;;;;;5043667;28;20064;-52
2021/08/21 05:48:59;;;;;;;8.48;5.00;;;17.30;74.70;;;;;;5042858;28;20020;-48
2021/08/21 05:51:44;;;;;;;10.27;4.75;;;17.30;74.70;;;;;;5042857;28;20217;-50
2021/08/21 05:54:28;;;;;;;6.97;4.65;;;17.30;74.70;;;;;;5043688;28;20239;-52
2021/08/21 05:57:12;;;;;;;6.70;4.65;;;17.50;74.60;;;;;;5043934;28;20047;-49
2021/08/21 05:59:56;;;;;;;7.80;4.68;;;17.50;75.00;;;;;;5043741;28;20079;-52
2021/08/21 06:02:41;;;;;;;6.47;4.28;;;17.60;75.10;;;;;;5044027;28;20040;-51
2021/08/21 06:05:25;;;;;;;5.95;4.45;;;17.70;74.80;;;;;;5044246;28;20028;-50
2021/08/21 06:08:10;;;;;;;8.15;4.63;;;17.80;74.70;;;;;;5044059;28;20037;-49
2021/08/21 06:10:56;;;;;;;7.20;4.95;;;17.80;74.80;;;;;;5043878;28;20031;-49
2021/08/21 06:13:40;;;;;;;6.63;4.82;;;17.80;74.90;;;;;;5043807;28;20110;-50
2021/08/21 06:16:24;;;;;;;6.75;4.63;;;17.90;74.70;;;;;;5043469;28;20360;-51
2021/08/21 06:19:09;;;;;;;7.63;4.65;;;17.90;74.80;;;;;;5043443;28;20113;-49
2021/08/21 06:21:53;;;;;;;7.63;4.75;;;18.00;74.80;;;;;;5043336;28;20113;-50
2021/08/21 06:24:37;;;;;;;9.82;4.40;;;18.00;74.70;;;;;;5043126;28;20048;-52
2021/08/21 06:27:22;;;;;;;7.03;4.78;;;18.10;74.70;;;;;;5044129;28;20044;-51
2021/08/21 06:30:06;;;;;;;8.70;4.47;;;18.30;74.90;;;;;;5043427;28;20031;-49
2021/08/21 06:32:50;;;;;;;7.43;5.00;;;18.30;74.80;;;;;;5043995;28;20040;-51
2021/08/21 06:35:35;;;;;;;8.05;4.75;;;18.30;74.80;;;;;;5043488;28;20049;-49
2021/08/21 06:38:19;;;;;;;9.77;5.10;;;18.30;74.70;;;;;;5043295;28;20365;-50
2021/08/21 06:41:03;;;;;;;9.15;4.70;;;18.40;74.50;;;;;;5043423;28;20040;-50
2021/08/21 06:43:48;;;;;;;7.00;4.40;;;18.40;74.30;;;;;;5043034;28;20359;-49
2021/08/21 06:46:32;;;;;;;7.85;4.72;;;18.60;74.10;;;;;;5043372;28;20037;-52
2021/08/21 06:49:16;;;;;;;6.57;4.60;;;18.60;73.80;;;;;;5043313;28;20229;-51
2021/08/21 06:52:00;;;;;;;8.85;5.03;;;18.80;73.80;;;;;;5043313;28;20255;-50
2021/08/21 06:54:45;;;;;;;6.25;4.40;;;18.90;73.50;;;;;;5043016;28;20072;-50
2021/08/21 06:57:29;;;;;;;8.57;4.90;;;18.90;73.30;;;;;;5042953;28;20023;-50
2021/08/21 07:00:14;;;;;;;6.68;4.25;;;19.00;73.50;;;;;;5043544;28;20071;-49
2021/08/21 07:02:58;;;;;;;6.28;4.63;;;19.10;73.80;;;;;;5044615;28;20040;-52
2021/08/21 07:05:42;;;;;;;6.20;4.25;;;19.20;73.70;;;;;;5046129;28;20056;-51
2021/08/21 07:08:26;;;;;;;6.28;4.60;;;19.30;73.50;;;;;;5046437;28;20107;-50
2021/08/21 07:11:10;;;;;;;7.63;4.47;;;19.40;73.40;;;;;;5045482;28;20068;-49
2021/08/21 07:13:55;;;;;;;6.50;4.28;;;19.50;73.10;;;;;;5046271;28;20312;-49
2021/08/21 07:16:39;;;;;;;6.63;4.88;;;19.70;72.90;;;;;;5046207;28;20084;-51
2021/08/21 07:19:23;;;;;;;5.43;4.03;;;20.30;71.90;;;;;;5046385;28;20067;-50
2021/08/21 07:22:07;;;;;;;7.78;4.70;;;21.20;68.90;;;;;;5046214;28;20351;-53
2021/08/21 07:24:52;;;;;;;5.60;4.70;;;22.30;66.50;;;;;;5046190;28;20028;-52
2021/08/21 07:27:36;;;;;;;6.68;4.60;;;23.50;62.60;;;;;;5046029;28;20105;-53
2021/08/21 07:30:20;;;;;;;7.35;4.18;;;24.50;60.20;;;;;;5046475;28;20128;-51
2021/08/21 07:33:04;;;;;;;6.95;4.18;;;25.90;56.00;;;;;;5046275;28;20032;-52
2021/08/21 07:35:49;;;;;;;8.55;3.65;;;25.60;55.90;;;;;;5045038;28;20032;-53
2021/08/21 07:38:33;;;;;;;6.30;3.83;;;25.80;56.10;;;;;;5046003;28;20224;-53
2021/08/21 07:41:18;;;;;;;4.82;3.10;;;26.10;55.90;;;;;;5044947;28;20036;-54
2021/08/21 07:44:03;;;;;;;5.63;3.25;;;27.50;52.00;;;;;;5044872;28;20072;-50
2021/08/21 07:46:47;;;;;;;4.53;3.40;;;28.80;48.20;;;;;;5045737;28;20079;-54
2021/08/21 07:49:31;;;;;;;4.80;3.65;;;29.00;46.50;;;;;;5045801;28;20047;-53
2021/08/21 07:52:15;;;;;;;5.72;3.80;;;27.90;48.40;;;;;;5045677;28;20032;-54
2021/08/21 07:54:59;;;;;;;5.75;3.45;;;27.30;50.40;;;;;;5045637;28;20036;-50
2021/08/21 07:57:44;;;;;;;5.75;4.00;;;26.50;51.90;;;;;;5045630;28;20080;-53
2021/08/21 08:00:28;;;;;;;7.15;3.72;;;25.80;53.30;;;;;;5045514;28;20052;-55
2021/08/21 08:03:14;;;;;;;5.55;3.92;;;25.50;54.60;;;;;;5045931;28;20032;-53
2021/08/21 08:05:58;;;;;;;9.07;4.13;;;25.10;55.30;;;;;;5045606;28;20205;-53
2021/08/21 08:08:43;;;;;;;6.03;3.83;;;24.80;56.80;;;;;;5046069;28;20079;-52
2021/08/21 08:11:27;;;;;;;7.72;4.15;;;24.60;57.50;;;;;;5045707;28;20072;-53
2021/08/21 08:14:11;;;;;;;4.90;3.75;;;24.50;57.80;;;;;;5044412;28;20056;-53
2021/08/21 08:16:56;;;;;;;6.55;4.10;;;24.40;58.40;;;;;;5045063;28;20036;-54
2021/08/21 08:19:40;;;;;;;5.45;3.97;;;24.30;57.60;;;;;;5045190;28;20260;-54
2021/08/21 08:22:25;;;;;;;5.88;4.00;;;24.20;58.10;;;;;;5045310;28;20338;-53
2021/08/21 08:25:09;;;;;;;5.72;3.80;;;24.20;58.60;;;;;;5045056;28;20037;-53
2021/08/21 08:27:53;;;;;;;6.50;3.80;;;24.00;58.60;;;;;;5045009;28;20340;-53
2021/08/21 08:30:37;;;;;;;8.30;4.32;;;24.00;58.60;;;;;;5045282;28;20071;-54
2021/08/21 08:33:22;;;;;;;6.28;4.10;;;23.90;58.60;;;;;;5045310;28;20347;-54
2021/08/21 08:36:06;;;;;;;7.55;4.40;;;23.90;58.10;;;;;;5044942;28;20075;-50
2021/08/21 08:38:51;;;;;;;6.28;4.00;;;23.90;58.20;;;;;;5045049;28;20340;-53
2021/08/21 08:41:35;;;;;;;6.90;3.92;;;24.00;58.70;;;;;;5045098;28;20063;-52
2021/08/21 08:44:20;;;;;;;7.28;4.40;;;24.00;58.50;;;;;;5044552;28;20083;-53
2021/08/21 08:47:05;;;;;;;5.43;3.83;;;24.10;58.00;;;;;;5044068;28;20049;-53
2021/08/21 08:49:50;;;;;;;6.68;3.67;;;24.20;59.30;;;;;;5043954;28;20247;-50
2021/08/21 08:52:34;;;;;;;5.90;3.80;;;24.30;59.90;;;;;;5044680;28;20037;-52
2021/08/21 08:55:18;;;;;;;6.82;3.90;;;24.40;59.00;;;;;;5044567;28;20383;-50
2021/08/21 08:58:04;;;;;;;8.10;4.30;;;24.40;57.50;;;;;;5044439;28;20064;-54
2021/08/21 09:00:48;;;;;;;5.47;3.92;;;24.50;59.60;;;;;;5044398;28;20366;-53
2021/08/21 09:03:33;;;;;;;5.60;3.92;;;24.70;58.20;;;;;;5044392;28;20052;-53
2021/08/21 09:06:17;;;;;;;6.63;4.15;;;24.80;58.90;;;;;;5044532;28;20059;-54
2021/08/21 09:09:17;;;;;;;6.78;4.18;;;24.90;57.40;;;;;;5029447;28;20082;-52
2021/08/21 09:12:01;;;;;;;5.40;3.63;;;24.90;56.60;;;;;;5044619;28;20040;-54
2021/08/21 09:14:46;;;;;;;5.72;3.97;;;25.00;57.60;;;;;;5044339;28;20080;-54
2021/08/21 09:17:30;;;;;;;7.30;3.63;;;25.00;56.10;;;;;;5043450;28;20096;-54
2021/08/21 09:20:14;;;;;;;7.60;4.32;;;25.00;55.60;;;;;;5044221;28;20060;-51
2021/08/21 09:23:18;;;;;;;6.75;4.40;;;25.10;55.30;;;;;;5044093;28;20056;-51
2021/08/21 09:26:21;;;;;;;7.22;4.35;;;25.20;55.10;;;;;;5043902;28;20072;-53
2021/08/21 09:29:04;;;;;;;9.35;4.68;;;25.30;58.00;;;;;;5044241;28;20039;-53
2021/08/21 09:31:49;;;;;;;6.97;4.03;;;25.30;54.90;;;;;;5043879;28;20093;-55
2021/08/21 09:34:33;;;;;;;8.10;3.78;;;25.40;54.80;;;;;;5042838;28;20060;-53
2021/08/21 09:37:18;;;;;;;5.05;3.70;;;25.50;56.70;;;;;;5044031;28;20136;-54
2021/08/21 09:40:03;;;;;;;5.38;4.03;;;25.70;58.40;;;;;;5043839;28;20137;-53
2021/08/21 09:42:47;;;;;;;5.93;3.92;;;25.80;58.10;;;;;;5043679;28;20087;-54
2021/08/21 09:45:35;;;;;;;5.72;3.85;;;25.80;56.50;;;;;;5042976;28;20071;-54
2021/08/21 09:48:19;;;;;;;6.50;3.75;;;25.70;55.90;;;;;;5044089;28;20028;-53
2021/08/21 09:51:04;;;;;;;4.85;3.50;;;25.70;55.50;;;;;;5043889;28;20075;-54
2021/08/21 09:53:48;;;;;;;7.53;3.85;;;25.70;55.00;;;;;;5043550;28;20375;-53
2021/08/21 09:56:36;;;;;;;4.90;3.80;;;25.80;55.70;;;;;;5043582;28;20036;-54
2021/08/21 09:59:36;;;;;;;6.40;3.78;;;25.90;56.90;;;;;;5043403;28;20359;-54
2021/08/21 10:02:20;;;;;;;7.00;3.88;;;25.70;53.10;;;;;;5043411;28;20072;-54
2021/08/21 10:05:05;;;;;;;6.43;3.90;;;25.80;53.30;;;;;;5043474;28;20064;-54
2021/08/21 10:08:01;;;;;;;5.50;4.03;;;25.80;52.40;;;;;;5043571;28;20032;-54
2021/08/21 10:10:53;;;;;;;5.03;3.17;;;25.90;52.70;;;;;;5043550;28;20392;-55
2021/08/21 10:13:38;;;;;;;5.32;3.88;;;26.10;53.80;;;;;;5029619;28;20068;-54
2021/08/21 10:16:22;;;;;;;7.03;4.00;;;26.20;54.20;;;;;;5042470;28;20040;-54
2021/08/21 10:19:06;;;;;;;5.38;3.85;;;26.30;54.10;;;;;;5042435;28;20068;-54
2021/08/21 10:21:54;;;;;;;6.22;4.15;;;26.30;54.90;;;;;;5043510;28;20096;-54
2021/08/21 10:24:43;;;;;;;5.38;3.80;;;26.50;56.30;;;;;;5042397;28;20041;-53
2021/08/21 10:27:37;;;;;;;5.75;3.70;;;26.70;54.00;;;;;;5042337;28;20028;-52
2021/08/21 10:30:23;;;;;;;4.53;3.40;;;26.70;51.80;;;;;;5043688;28;20386;-54
2021/08/21 10:33:07;;;;;;;8.38;3.92;;;26.80;50.70;;;;;;5042417;28;20080;-54
2021/08/21 10:35:56;;;;;;;5.18;3.40;;;26.80;50.50;;;;;;5042376;28;20224;-54
2021/08/21 10:38:40;;;;;;;5.70;3.47;;;26.80;50.00;;;;;;5046323;28;20032;-54
2021/08/21 10:41:27;;;;;;;7.15;3.53;;;26.90;52.70;;;;;;5047408;28;20083;-54
2021/08/21 10:44:13;;;;;;;4.93;4.05;;;27.00;50.60;;;;;;5047258;28;20029;-54
2021/08/21 10:46:57;;;;;;;5.30;3.63;;;27.10;50.90;;;;;;5046213;28;20037;-50
2021/08/21 10:49:43;;;;;;;7.07;3.63;;;27.10;48.40;;;;;;5047009;28;20063;-54
2021/08/21 10:52:54;;;;;;;9.02;3.30;;;27.20;49.80;;;;;;5046988;28;20066;-54
2021/08/21 10:55:42;;;;;;;4.80;2.97;;;27.10;46.80;;;;;;5046932;28;20091;-54
2021/08/21 10:58:27;;;;;;;5.13;3.42;;;27.10;47.40;;;;;;5046846;28;20069;-54
2021/08/21 11:01:11;;;;;;;5.90;3.45;;;27.30;50.70;;;;;;5031909;28;20209;-54
2021/08/21 11:03:55;;;;;;;6.28;3.20;;;27.40;51.10;;;;;;5031929;28;20044;-53
2021/08/21 11:06:41;;;;;;;4.28;3.35;;;27.60;51.10;;;;;;5046893;28;20339;-51
2021/08/21 11:09:26;;;;;;;7.07;3.70;;;27.70;51.40;;;;;;5046475;28;20025;-51
2021/08/21 11:12:18;;;;;;;5.18;3.35;;;27.70;49.80;;;;;;5046935;28;20064;-51
2021/08/21 11:15:11;;;;;;;5.68;3.55;;;27.40;47.90;;;;;;5032734;28;20052;-53
2021/08/21 11:17:56;;;;;;;4.47;3.22;;;27.50;45.20;;;;;;5046366;28;20044;-54
2021/08/21 11:20:40;;;;;;;5.10;3.40;;;27.40;47.40;;;;;;5046753;28;20031;-51
2021/08/21 11:23:24;;;;;;;5.97;3.67;;;27.30;45.80;;;;;;5046424;28;20234;-52
2021/08/21 11:26:21;;;;;;;4.30;3.00;;;27.50;46.70;;;;;;5046480;28;20036;-51
2021/08/21 11:29:09;;;;;;;4.85;3.20;;;27.70;47.90;;;;;;5045544;28;20051;-54
2021/08/21 11:31:59;;;;;;;4.57;3.38;;;27.70;46.90;;;;;;5046159;28;20044;-52
2021/08/21 11:34:43;;;;;;;4.97;3.37;;;27.80;48.10;;;;;;5046683;28;20120;-53
2021/08/21 11:37:29;;;;;;;5.90;3.55;;;27.80;47.70;;;;;;5046153;28;20068;-54
2021/08/21 11:40:16;;;;;;;5.88;3.75;;;28.00;48.30;;;;;;5046204;28;20075;-54
2021/08/21 11:43:00;;;;;;;5.55;3.70;;;28.10;47.80;;;;;;5044757;28;20094;-53
2021/08/21 11:45:45;;;;;;;5.80;3.38;;;28.10;46.10;;;;;;5045846;28;20095;-51
2021/08/21 11:48:30;;;;;;;6.18;3.67;;;28.20;47.90;;;;;;5045108;28;20028;-53
2021/08/21 11:51:14;;;;;;;5.43;3.67;;;28.30;45.70;;;;;;5046039;28;20088;-54
2021/08/21 11:53:58;;;;;;;5.68;3.33;;;28.20;44.80;;;;;;5030890;28;20075;-54
2021/08/21 11:56:56;;;;;;;4.93;3.47;;;28.30;46.10;;;;;;5030668;28;20358;-54
2021/08/21 11:59:41;;;;;;;5.32;3.88;;;28.40;48.70;;;;;;5046031;28;20375;-51
2021/08/21 12:02:25;;;;;;;8.93;3.72;;;28.50;49.70;;;;;;5044649;28;20278;-52
2021/08/21 12:05:09;;;;;;;4.55;3.22;;;28.60;48.20;;;;;;5045049;28;20260;-52
2021/08/21 12:07:53;;;;;;;5.78;3.90;;;28.70;48.00;;;;;;5045319;28;20058;-52
2021/08/21 12:10:44;;;;;;;4.57;3.50;;;28.60;45.90;;;;;;5045367;28;20212;-52
2021/08/21 12:13:33;;;;;;;5.78;3.80;;;28.70;47.20;;;;;;5045184;28;20382;-49
2021/08/21 12:16:17;;;;;;;4.75;3.38;;;28.50;43.60;;;;;;5044176;28;20056;-52
2021/08/21 12:19:01;;;;;;;5.45;3.63;;;28.70;46.40;;;;;;5045446;28;20024;-53
2021/08/21 12:21:46;;;;;;;6.28;3.72;;;28.80;47.30;;;;;;5044272;28;20374;-52
2021/08/21 12:24:30;;;;;;;7.13;3.75;;;28.80;46.70;;;;;;5045010;28;20120;-51
2021/08/21 12:27:27;;;;;;;5.18;3.13;;;28.80;44.40;;;;;;5044632;28;20371;-50
2021/08/21 12:30:17;;;;;;;6.75;3.97;;;28.90;46.30;;;;;;5045146;28;20029;-52
2021/08/21 12:33:11;;;;;;;6.45;3.35;;;29.00;46.80;;;;;;5045067;28;20055;-52
2021/08/21 12:35:55;;;;;;;6.10;3.55;;;29.00;45.30;;;;;;5044977;28;20036;-52
2021/08/21 12:38:41;;;;;;;8.00;3.55;;;29.00;46.00;;;;;;5045381;28;20064;-52
2021/08/21 12:41:25;;;;;;;6.00;3.70;;;28.90;45.20;;;;;;5044688;28;20048;-52
2021/08/21 12:44:16;;;;;;;5.15;3.30;;;29.00;43.50;;;;;;5044706;28;20052;-51
2021/08/21 12:47:05;;;;;;;4.30;2.95;;;29.00;42.80;;;;;;5043768;28;20032;-49
2021/08/21 12:49:52;;;;;;;6.22;3.63;;;28.90;44.60;;;;;;5044652;28;20040;-51
2021/08/21 12:52:36;;;;;;;3.95;3.38;;;29.00;43.20;;;;;;5044983;28;20075;-52
2021/08/21 12:55:21;;;;;;;4.75;3.30;;;29.10;46.60;;;;;;5044490;28;20040;-53
2021/08/21 12:58:09;;;;;;;7.55;3.67;;;29.10;43.90;;;;;;5043665;28;20090;-52
2021/08/21 13:01:07;;;;;;;4.50;3.30;;;29.20;44.40;;;;;;5044074;28;20029;-53
2021/08/21 13:04:08;;;;;;;4.80;3.50;;;29.20;43.20;;;;;;5043430;28;20028;-52
2021/08/21 13:06:59;;;;;;;4.47;3.13;;;29.20;43.30;;;;;;5044571;28;20036;-52
2021/08/21 13:09:44;;;;;;;5.28;3.13;;;29.30;46.40;;;;;;5044294;28;20031;-52
2021/08/21 13:12:28;;;;;;;5.40;3.35;;;29.20;43.90;;;;;;5043284;28;20037;-53
2021/08/21 13:15:13;;;;;;;4.55;3.10;;;29.30;43.50;;;;;;5044613;28;20116;-51
2021/08/21 13:17:59;;;;;;;4.90;3.38;;;29.30;44.60;;;;;;5044215;28;20079;-52
2021/08/21 13:20:43;;;;;;;7.22;3.53;;;29.40;44.70;;;;;;5044621;28;20071;-52
2021/08/21 13:23:28;;;;;;;4.82;3.35;;;29.40;44.70;;;;;;5044051;28;20029;-52
2021/08/21 13:26:12;;;;;;;5.18;3.25;;;29.40;43.70;;;;;;5043954;28;20047;-52
2021/08/21 13:28:56;;;;;;;5.38;3.22;;;29.40;43.90;;;;;;5043887;28;20264;-53
2021/08/21 13:31:41;;;;;;;5.10;3.05;;;29.40;44.00;;;;;;5044268;28;20221;-53
2021/08/21 13:34:25;;;;;;;7.10;4.10;;;29.50;44.70;;;;;;5044176;28;20051;-53
2021/08/21 13:37:09;;;;;;;7.55;3.70;;;29.50;43.30;;;;;;5043865;28;20040;-53
2021/08/21 13:39:54;;;;;;;7.05;3.00;;;29.50;43.50;;;;;;5043734;28;20387;-52
2021/08/21 13:42:38;;;;;;;5.13;3.05;;;29.50;42.20;;;;;;5043920;28;20078;-53
2021/08/21 13:45:22;;;;;;;6.20;3.70;;;29.50;42.00;;;;;;5044234;28;20091;-52
2021/08/21 13:48:06;;;;;;;4.75;3.33;;;29.50;43.20;;;;;;5043889;28;20036;-52
2021/08/21 13:50:51;;;;;;;5.60;3.30;;;29.50;42.40;;;;;;5043923;28;20039;-52
2021/08/21 13:53:35;;;;;;;7.30;3.42;;;29.50;41.80;;;;;;5043954;28;20225;-52
2021/08/21 13:56:19;;;;;;;5.20;3.28;;;29.60;43.20;;;;;;5044111;28;20083;-52
2021/08/21 13:59:04;;;;;;;4.68;2.97;;;29.50;42.90;;;;;;5043904;28;20116;-52
2021/08/21 14:01:48;;;;;;;8.40;3.58;;;29.60;42.40;;;;;;5043729;28;20093;-52
2021/08/21 14:04:33;;;;;;;6.50;3.45;;;29.60;43.60;;;;;;5043659;28;20109;-53
2021/08/21 14:07:17;;;;;;;5.38;3.22;;;29.50;42.30;;;;;;5043596;28;20339;-52
2021/08/21 14:10:02;;;;;;;4.38;3.03;;;29.50;42.70;;;;;;5043501;28;20193;-52
2021/08/21 14:12:47;;;;;;;5.75;3.45;;;29.50;40.70;;;;;;5044984;28;20024;-52
2021/08/21 14:15:31;;;;;;;4.75;3.53;;;29.40;42.10;;;;;;5047315;28;20367;-52
2021/08/21 14:18:15;;;;;;;6.88;3.42;;;29.40;43.20;;;;;;5047290;28;20020;-53